sensor_id;sensor_type;location;lat;lon;timestamp;P1;durP1;ratioP1;P2;durP2;ratioP2
25349;SDS011;13302;48.796;11.978;2023-05-07T00:01:00;1.40;;;1.40;;
25349;SDS011;13302;48.796;11.978;2023-05-07T00:03:47;1.80;;;1.73;;
25349;SDS011;13302;48.796;11.978;2023-05-07T00:06:35;2.53;;;1.87;;
25349;SDS011;13302;48.796;11.978;2023-05-07T00:09:22;1.60;;;1.60;;
25349;SDS011;13302;48.796;11.978;2023-05-07T00:12:09;1.63;;;1.60;;
25349;SDS011;13302;48.796;11.978;2023-05-07T00:14:56;2.07;;;1.40;;
25349;SDS011;13302;48.796;11.978;2023-05-07T00:17:44;1.37;;;1.37;;
25349;SDS011;13302;48.796;11.978;2023-05-07T00:20:31;1.80;;;1.47;;
25349;SDS011;13302;48.796;11.978;2023-05-07T00:23:21;1.40;;;1.30;;
25349;SDS011;13302;48.796;11.978;2023-05-07T00:26:08;1.57;;;1.57;;
25349;SDS011;13302;48.796;11.978;2023-05-07T00:28:55;1.60;;;1.50;;
25349;SDS011;13302;48.796;11.978;2023-05-07T00:31:42;1.67;;;1.57;;
25349;SDS011;13302;48.796;11.978;2023-05-07T00:34:29;1.23;;;1.20;;
25349;SDS011;13302;48.796;11.978;2023-05-07T00:37:16;1.50;;;1.50;;
25349;SDS011;13302;48.796;11.978;2023-05-07T00:40:03;1.50;;;1.40;;
25349;SDS011;13302;48.796;11.978;2023-05-07T00:42:54;1.57;;;1.47;;
25349;SDS011;13302;48.796;11.978;2023-05-07T00:45:45;1.93;;;1.57;;
25349;SDS011;13302;48.796;11.978;2023-05-07T00:48:32;1.70;;;1.60;;
25349;SDS011;13302;48.796;11.978;2023-05-07T00:51:19;2.30;;;1.40;;
25349;SDS011;13302;48.796;11.978;2023-05-07T00:54:06;1.50;;;1.50;;
25349;SDS011;13302;48.796;11.978;2023-05-07T00:56:54;1.70;;;1.60;;
25349;SDS011;13302;48.796;11.978;2023-05-07T00:59:41;1.40;;;1.40;;
25349;SDS011;13302;48.796;11.978;2023-05-07T01:02:29;1.50;;;1.40;;
25349;SDS011;13302;48.796;11.978;2023-05-07T01:05:16;1.50;;;1.40;;
25349;SDS011;13302;48.796;11.978;2023-05-07T01:08:06;1.50;;;1.40;;
25349;SDS011;13302;48.796;11.978;2023-05-07T01:10:54;1.50;;;1.40;;
25349;SDS011;13302;48.796;11.978;2023-05-07T01:13:42;1.37;;;1.37;;
25349;SDS011;13302;48.796;11.978;2023-05-07T01:16:29;1.40;;;1.40;;
25349;SDS011;13302;48.796;11.978;2023-05-07T01:19:18;1.70;;;1.70;;
25349;SDS011;13302;48.796;11.978;2023-05-07T01:22:07;1.50;;;1.40;;
25349;SDS011;13302;48.796;11.978;2023-05-07T01:25:09;1.60;;;1.60;;
25349;SDS011;13302;48.796;11.978;2023-05-07T01:28:00;1.47;;;1.37;;
25349;SDS011;13302;48.796;11.978;2023-05-07T01:30:56;1.37;;;1.37;;
25349;SDS011;13302;48.796;11.978;2023-05-07T01:33:48;1.90;;;1.80;;
25349;SDS011;13302;48.796;11.978;2023-05-07T01:36:38;1.37;;;1.37;;
25349;SDS011;13302;48.796;11.978;2023-05-07T01:39:27;1.40;;;1.40;;
25349;SDS011;13302;48.796;11.978;2023-05-07T01:42:15;1.27;;;1.27;;
25349;SDS011;13302;48.796;11.978;2023-05-07T01:45:02;1.50;;;1.50;;
25349;SDS011;13302;48.796;11.978;2023-05-07T01:47:49;1.43;;;1.30;;
25349;SDS011;13302;48.796;11.978;2023-05-07T01:50:38;1.43;;;1.43;;
25349;SDS011;13302;48.796;11.978;2023-05-07T01:53:27;1.53;;;1.53;;
25349;SDS011;13302;48.796;11.978;2023-05-07T01:56:14;1.30;;;1.30;;
25349;SDS011;13302;48.796;11.978;2023-05-07T01:59:02;1.50;;;1.40;;
25349;SDS011;13302;48.796;11.978;2023-05-07T02:01:49;1.40;;;1.40;;
25349;SDS011;13302;48.796;11.978;2023-05-07T02:04:36;2.03;;;1.93;;
25349;SDS011;13302;48.796;11.978;2023-05-07T02:07:23;2.27;;;2.20;;
25349;SDS011;13302;48.796;11.978;2023-05-07T02:10:10;2.03;;;1.93;;
25349;SDS011;13302;48.796;11.978;2023-05-07T02:12:58;3.57;;;2.20;;
25349;SDS011;13302;48.796;11.978;2023-05-07T02:15:46;1.80;;;1.80;;
25349;SDS011;13302;48.796;11.978;2023-05-07T02:18:37;1.97;;;1.87;;
25349;SDS011;13302;48.796;11.978;2023-05-07T02:21:24;1.77;;;1.77;;
25349;SDS011;13302;48.796;11.978;2023-05-07T02:24:11;1.67;;;1.67;;
25349;SDS011;13302;48.796;11.978;2023-05-07T02:26:58;1.67;;;1.67;;
25349;SDS011;13302;48.796;11.978;2023-05-07T02:29:46;2.33;;;2.13;;
25349;SDS011;13302;48.796;11.978;2023-05-07T02:32:33;3.83;;;2.10;;
25349;SDS011;13302;48.796;11.978;2023-05-07T02:35:20;1.93;;;1.83;;
25349;SDS011;13302;48.796;11.978;2023-05-07T02:38:07;2.00;;;1.90;;
25349;SDS011;13302;48.796;11.978;2023-05-07T02:40:58;1.93;;;1.90;;
25349;SDS011;13302;48.796;11.978;2023-05-07T02:43:45;1.73;;;1.73;;
25349;SDS011;13302;48.796;11.978;2023-05-07T02:46:32;2.37;;;2.20;;
25349;SDS011;13302;48.796;11.978;2023-05-07T02:49:24;1.57;;;1.57;;
25349;SDS011;13302;48.796;11.978;2023-05-07T02:52:11;1.60;;;1.60;;
25349;SDS011;13302;48.796;11.978;2023-05-07T02:54:58;1.40;;;1.40;;
25349;SDS011;13302;48.796;11.978;2023-05-07T02:57:45;2.57;;;1.60;;
25349;SDS011;13302;48.796;11.978;2023-05-07T03:00:32;2.27;;;2.17;;
25349;SDS011;13302;48.796;11.978;2023-05-07T03:03:31;1.73;;;1.57;;
25349;SDS011;13302;48.796;11.978;2023-05-07T03:06:18;2.23;;;1.90;;
25349;SDS011;13302;48.796;11.978;2023-05-07T03:09:06;2.87;;;1.97;;
25349;SDS011;13302;48.796;11.978;2023-05-07T03:11:53;2.10;;;2.00;;
25349;SDS011;13302;48.796;11.978;2023-05-07T03:14:41;1.80;;;1.70;;
25349;SDS011;13302;48.796;11.978;2023-05-07T03:17:28;2.57;;;1.80;;
25349;SDS011;13302;48.796;11.978;2023-05-07T03:20:15;1.70;;;1.70;;
25349;SDS011;13302;48.796;11.978;2023-05-07T03:23:02;2.13;;;2.03;;
25349;SDS011;13302;48.796;11.978;2023-05-07T03:25:49;1.93;;;1.83;;
25349;SDS011;13302;48.796;11.978;2023-05-07T03:28:37;1.70;;;1.70;;
25349;SDS011;13302;48.796;11.978;2023-05-07T03:31:27;3.27;;;1.80;;
25349;SDS011;13302;48.796;11.978;2023-05-07T03:34:14;2.17;;;1.60;;
25349;SDS011;13302;48.796;11.978;2023-05-07T03:37:03;1.90;;;1.80;;
25349;SDS011;13302;48.796;11.978;2023-05-07T03:39:50;2.00;;;1.90;;
25349;SDS011;13302;48.796;11.978;2023-05-07T03:42:38;2.10;;;2.00;;
25349;SDS011;13302;48.796;11.978;2023-05-07T03:45:25;3.03;;;1.63;;
25349;SDS011;13302;48.796;11.978;2023-05-07T03:48:29;1.40;;;1.40;;
25349;SDS011;13302;48.796;11.978;2023-05-07T03:51:18;1.80;;;1.53;;
25349;SDS011;13302;48.796;11.978;2023-05-07T03:54:05;1.70;;;1.70;;
25349;SDS011;13302;48.796;11.978;2023-05-07T03:56:53;2.60;;;1.70;;
25349;SDS011;13302;48.796;11.978;2023-05-07T03:59:40;1.47;;;1.47;;
25349;SDS011;13302;48.796;11.978;2023-05-07T04:02:28;1.50;;;1.50;;
25349;SDS011;13302;48.796;11.978;2023-05-07T04:05:15;1.70;;;1.70;;
25349;SDS011;13302;48.796;11.978;2023-05-07T04:08:05;2.13;;;1.90;;
25349;SDS011;13302;48.796;11.978;2023-05-07T04:10:59;1.83;;;1.77;;
25349;SDS011;13302;48.796;11.978;2023-05-07T04:13:49;1.83;;;1.83;;
25349;SDS011;13302;48.796;11.978;2023-05-07T04:16:40;1.77;;;1.67;;
25349;SDS011;13302;48.796;11.978;2023-05-07T04:19:28;1.47;;;1.47;;
25349;SDS011;13302;48.796;11.978;2023-05-07T04:22:15;1.33;;;1.23;;
25349;SDS011;13302;48.796;11.978;2023-05-07T04:25:02;1.70;;;1.60;;
25349;SDS011;13302;48.796;11.978;2023-05-07T04:27:51;1.50;;;1.50;;
25349;SDS011;13302;48.796;11.978;2023-05-07T04:30:39;1.93;;;1.83;;
25349;SDS011;13302;48.796;11.978;2023-05-07T04:33:28;1.80;;;1.70;;
25349;SDS011;13302;48.796;11.978;2023-05-07T04:36:17;1.67;;;1.57;;
25349;SDS011;13302;48.796;11.978;2023-05-07T04:39:16;1.73;;;1.63;;
25349;SDS011;13302;48.796;11.978;2023-05-07T04:42:06;1.57;;;1.50;;
25349;SDS011;13302;48.796;11.978;2023-05-07T04:44:55;1.63;;;1.53;;
25349;SDS011;13302;48.796;11.978;2023-05-07T04:47:43;2.10;;;1.90;;
25349;SDS011;13302;48.796;11.978;2023-05-07T04:50:30;2.87;;;2.13;;
25349;SDS011;13302;48.796;11.978;2023-05-07T04:53:20;2.60;;;2.40;;
25349;SDS011;13302;48.796;11.978;2023-05-07T04:56:09;2.57;;;2.37;;
25349;SDS011;13302;48.796;11.978;2023-05-07T04:59:00;2.80;;;2.47;;
25349;SDS011;13302;48.796;11.978;2023-05-07T05:01:48;2.80;;;2.60;;
25349;SDS011;13302;48.796;11.978;2023-05-07T05:04:35;2.93;;;2.80;;
25349;SDS011;13302;48.796;11.978;2023-05-07T05:07:23;2.90;;;2.70;;
25349;SDS011;13302;48.796;11.978;2023-05-07T05:10:11;2.93;;;2.70;;
25349;SDS011;13302;48.796;11.978;2023-05-07T05:13:01;2.90;;;2.80;;
25349;SDS011;13302;48.796;11.978;2023-05-07T05:15:48;3.30;;;3.10;;
25349;SDS011;13302;48.796;11.978;2023-05-07T05:18:36;3.30;;;3.10;;
25349;SDS011;13302;48.796;11.978;2023-05-07T05:21:24;3.93;;;3.53;;
25349;SDS011;13302;48.796;11.978;2023-05-07T05:24:16;5.57;;;5.07;;
25349;SDS011;13302;48.796;11.978;2023-05-07T05:27:03;5.83;;;5.17;;
25349;SDS011;13302;48.796;11.978;2023-05-07T05:29:51;6.27;;;5.67;;
25349;SDS011;13302;48.796;11.978;2023-05-07T05:32:38;7.63;;;5.97;;
25349;SDS011;13302;48.796;11.978;2023-05-07T05:35:25;5.80;;;5.30;;
25349;SDS011;13302;48.796;11.978;2023-05-07T05:38:13;6.13;;;5.60;;
25349;SDS011;13302;48.796;11.978;2023-05-07T05:41:00;6.03;;;4.90;;
25349;SDS011;13302;48.796;11.978;2023-05-07T05:43:49;5.57;;;5.17;;
25349;SDS011;13302;48.796;11.978;2023-05-07T05:46:37;5.13;;;4.73;;
25349;SDS011;13302;48.796;11.978;2023-05-07T05:49:25;4.23;;;3.97;;
25349;SDS011;13302;48.796;11.978;2023-05-07T05:52:13;3.80;;;3.60;;
25349;SDS011;13302;48.796;11.978;2023-05-07T05:55:01;4.13;;;3.83;;
25349;SDS011;13302;48.796;11.978;2023-05-07T05:57:48;4.00;;;3.70;;
25349;SDS011;13302;48.796;11.978;2023-05-07T06:00:35;3.57;;;3.27;;
25349;SDS011;13302;48.796;11.978;2023-05-07T06:03:24;3.47;;;3.27;;
25349;SDS011;13302;48.796;11.978;2023-05-07T06:06:12;3.40;;;3.20;;
25349;SDS011;13302;48.796;11.978;2023-05-07T06:09:02;3.80;;;3.50;;
25349;SDS011;13302;48.796;11.978;2023-05-07T06:11:56;3.47;;;3.27;;
25349;SDS011;13302;48.796;11.978;2023-05-07T06:14:46;3.40;;;3.10;;
25349;SDS011;13302;48.796;11.978;2023-05-07T06:17:34;3.43;;;3.17;;
25349;SDS011;13302;48.796;11.978;2023-05-07T06:20:21;2.97;;;2.87;;
25349;SDS011;13302;48.796;11.978;2023-05-07T06:23:09;3.70;;;3.50;;
25349;SDS011;13302;48.796;11.978;2023-05-07T06:25:57;3.40;;;3.20;;
25349;SDS011;13302;48.796;11.978;2023-05-07T06:28:49;3.73;;;3.53;;
25349;SDS011;13302;48.796;11.978;2023-05-07T06:31:36;3.43;;;3.23;;
25349;SDS011;13302;48.796;11.978;2023-05-07T06:34:27;3.57;;;3.37;;
25349;SDS011;13302;48.796;11.978;2023-05-07T06:37:14;3.33;;;3.10;;
25349;SDS011;13302;48.796;11.978;2023-05-07T06:40:10;3.30;;;3.10;;
25349;SDS011;13302;48.796;11.978;2023-05-07T06:42:59;3.47;;;3.27;;
25349;SDS011;13302;48.796;11.978;2023-05-07T06:46:06;3.60;;;3.30;;
25349;SDS011;13302;48.796;11.978;2023-05-07T06:48:54;4.20;;;3.90;;
25349;SDS011;13302;48.796;11.978;2023-05-07T06:51:41;4.20;;;3.90;;
25349;SDS011;13302;48.796;11.978;2023-05-07T06:54:28;3.07;;;2.87;;
25349;SDS011;13302;48.796;11.978;2023-05-07T06:57:16;4.10;;;3.80;;
25349;SDS011;13302;48.796;11.978;2023-05-07T07:00:03;3.77;;;3.53;;
25349;SDS011;13302;48.796;11.978;2023-05-07T07:03:00;3.97;;;3.67;;
25349;SDS011;13302;48.796;11.978;2023-05-07T07:05:50;3.50;;;3.30;;
25349;SDS011;13302;48.796;11.978;2023-05-07T07:08:38;4.13;;;3.83;;
25349;SDS011;13302;48.796;11.978;2023-05-07T07:11:27;3.27;;;3.13;;
25349;SDS011;13302;48.796;11.978;2023-05-07T07:14:14;3.63;;;3.33;;
25349;SDS011;13302;48.796;11.978;2023-05-07T07:17:07;3.23;;;3.03;;
25349;SDS011;13302;48.796;11.978;2023-05-07T07:19:54;4.10;;;3.77;;
25349;SDS011;13302;48.796;11.978;2023-05-07T07:22:42;3.70;;;3.50;;
25349;SDS011;13302;48.796;11.978;2023-05-07T07:25:29;3.80;;;3.60;;
25349;SDS011;13302;48.796;11.978;2023-05-07T07:28:17;3.93;;;3.73;;
25349;SDS011;13302;48.796;11.978;2023-05-07T07:31:04;4.07;;;3.67;;
25349;SDS011;13302;48.796;11.978;2023-05-07T07:33:51;3.77;;;3.50;;
25349;SDS011;13302;48.796;11.978;2023-05-07T07:36:39;4.00;;;3.80;;
25349;SDS011;13302;48.796;11.978;2023-05-07T07:39:35;4.40;;;4.00;;
25349;SDS011;13302;48.796;11.978;2023-05-07T07:42:25;4.47;;;4.07;;
25349;SDS011;13302;48.796;11.978;2023-05-07T07:45:12;4.17;;;3.87;;
25349;SDS011;13302;48.796;11.978;2023-05-07T07:48:04;4.97;;;3.90;;
25349;SDS011;13302;48.796;11.978;2023-05-07T07:50:55;3.97;;;3.77;;
25349;SDS011;13302;48.796;11.978;2023-05-07T07:53:42;4.03;;;3.73;;
25349;SDS011;13302;48.796;11.978;2023-05-07T07:56:31;3.87;;;3.67;;
25349;SDS011;13302;48.796;11.978;2023-05-07T07:59:20;3.40;;;3.20;;
25349;SDS011;13302;48.796;11.978;2023-05-07T08:02:09;4.43;;;4.03;;
25349;SDS011;13302;48.796;11.978;2023-05-07T08:04:56;3.67;;;3.47;;
25349;SDS011;13302;48.796;11.978;2023-05-07T08:07:43;3.97;;;3.67;;
25349;SDS011;13302;48.796;11.978;2023-05-07T08:10:32;3.27;;;3.07;;
25349;SDS011;13302;48.796;11.978;2023-05-07T08:13:27;3.13;;;2.90;;
25349;SDS011;13302;48.796;11.978;2023-05-07T08:16:14;3.47;;;3.27;;
25349;SDS011;13302;48.796;11.978;2023-05-07T08:19:02;3.50;;;3.30;;
25349;SDS011;13302;48.796;11.978;2023-05-07T08:21:49;3.50;;;3.30;;
25349;SDS011;13302;48.796;11.978;2023-05-07T08:24:36;3.30;;;3.10;;
25349;SDS011;13302;48.796;11.978;2023-05-07T08:27:23;3.37;;;3.17;;
25349;SDS011;13302;48.796;11.978;2023-05-07T08:30:11;3.50;;;3.30;;
25349;SDS011;13302;48.796;11.978;2023-05-07T08:33:00;3.60;;;3.30;;
25349;SDS011;13302;48.796;11.978;2023-05-07T08:35:47;3.70;;;3.50;;
25349;SDS011;13302;48.796;11.978;2023-05-07T08:38:35;3.50;;;3.30;;
25349;SDS011;13302;48.796;11.978;2023-05-07T08:41:22;3.43;;;3.23;;
25349;SDS011;13302;48.796;11.978;2023-05-07T08:44:11;3.80;;;3.50;;
25349;SDS011;13302;48.796;11.978;2023-05-07T08:47:01;3.50;;;3.30;;
25349;SDS011;13302;48.796;11.978;2023-05-07T08:49:50;3.53;;;3.23;;
25349;SDS011;13302;48.796;11.978;2023-05-07T08:52:39;3.07;;;2.93;;
25349;SDS011;13302;48.796;11.978;2023-05-07T08:55:28;3.23;;;2.97;;
25349;SDS011;13302;48.796;11.978;2023-05-07T08:58:16;3.10;;;2.90;;
25349;SDS011;13302;48.796;11.978;2023-05-07T09:01:05;3.07;;;2.87;;
25349;SDS011;13302;48.796;11.978;2023-05-07T09:03:57;3.47;;;3.27;;
25349;SDS011;13302;48.796;11.978;2023-05-07T09:06:46;3.20;;;3.07;;
25349;SDS011;13302;48.796;11.978;2023-05-07T09:09:35;3.20;;;3.00;;
25349;SDS011;13302;48.796;11.978;2023-05-07T09:12:23;3.57;;;3.27;;
25349;SDS011;13302;48.796;11.978;2023-05-07T09:15:10;3.53;;;3.23;;
25349;SDS011;13302;48.796;11.978;2023-05-07T09:18:00;4.43;;;3.10;;
25349;SDS011;13302;48.796;11.978;2023-05-07T09:20:52;3.60;;;3.40;;
25349;SDS011;13302;48.796;11.978;2023-05-07T09:23:41;3.37;;;3.17;;
25349;SDS011;13302;48.796;11.978;2023-05-07T09:26:29;3.40;;;3.17;;
25349;SDS011;13302;48.796;11.978;2023-05-07T09:29:16;3.70;;;3.47;;
25349;SDS011;13302;48.796;11.978;2023-05-07T09:32:05;3.80;;;3.53;;
25349;SDS011;13302;48.796;11.978;2023-05-07T09:34:53;3.53;;;3.33;;
25349;SDS011;13302;48.796;11.978;2023-05-07T09:37:43;2.73;;;2.63;;
25349;SDS011;13302;48.796;11.978;2023-05-07T09:40:30;2.70;;;2.60;;
25349;SDS011;13302;48.796;11.978;2023-05-07T09:43:22;2.83;;;2.70;;
25349;SDS011;13302;48.796;11.978;2023-05-07T09:46:15;3.30;;;3.10;;
25349;SDS011;13302;48.796;11.978;2023-05-07T09:49:11;3.40;;;3.17;;
25349;SDS011;13302;48.796;11.978;2023-05-07T09:52:05;2.73;;;2.50;;
25349;SDS011;13302;48.796;11.978;2023-05-07T09:54:58;3.00;;;2.80;;
25349;SDS011;13302;48.796;11.978;2023-05-07T09:57:51;2.70;;;2.60;;
25349;SDS011;13302;48.796;11.978;2023-05-07T10:00:40;3.17;;;2.90;;
25349;SDS011;13302;48.796;11.978;2023-05-07T10:03:33;3.00;;;2.80;;
25349;SDS011;13302;48.796;11.978;2023-05-07T10:06:24;2.93;;;2.83;;
25349;SDS011;13302;48.796;11.978;2023-05-07T10:09:12;3.60;;;3.10;;
25349;SDS011;13302;48.796;11.978;2023-05-07T10:12:00;3.00;;;2.80;;
25349;SDS011;13302;48.796;11.978;2023-05-07T10:14:48;2.53;;;2.43;;
25349;SDS011;13302;48.796;11.978;2023-05-07T10:17:38;2.17;;;2.13;;
25349;SDS011;13302;48.796;11.978;2023-05-07T10:20:28;2.43;;;2.33;;
25349;SDS011;13302;48.796;11.978;2023-05-07T10:23:18;2.13;;;2.03;;
25349;SDS011;13302;48.796;11.978;2023-05-07T10:26:11;2.50;;;2.40;;
25349;SDS011;13302;48.796;11.978;2023-05-07T10:29:03;2.33;;;2.23;;
25349;SDS011;13302;48.796;11.978;2023-05-07T10:35:20;2.20;;;2.20;;
25349;SDS011;13302;48.796;11.978;2023-05-07T10:38:09;3.03;;;2.30;;
25349;SDS011;13302;48.796;11.978;2023-05-07T10:40:59;2.10;;;2.00;;
25349;SDS011;13302;48.796;11.978;2023-05-07T10:43:48;2.50;;;2.40;;
25349;SDS011;13302;48.796;11.978;2023-05-07T10:46:43;2.23;;;2.23;;
25349;SDS011;13302;48.796;11.978;2023-05-07T10:50:19;2.53;;;2.23;;
25349;SDS011;13302;48.796;11.978;2023-05-07T11:02:11;2.37;;;2.27;;
25349;SDS011;13302;48.796;11.978;2023-05-07T11:08:23;2.17;;;2.07;;
25349;SDS011;13302;48.796;11.978;2023-05-07T11:17:33;2.00;;;2.00;;
25349;SDS011;13302;48.796;11.978;2023-05-07T11:20:45;2.50;;;2.40;;
25349;SDS011;13302;48.796;11.978;2023-05-07T11:23:58;4.20;;;2.13;;
25349;SDS011;13302;48.796;11.978;2023-05-07T11:26:53;1.97;;;1.87;;
25349;SDS011;13302;48.796;11.978;2023-05-07T11:29:44;2.50;;;2.30;;
25349;SDS011;13302;48.796;11.978;2023-05-07T11:32:34;1.97;;;1.87;;
25349;SDS011;13302;48.796;11.978;2023-05-07T11:35:22;1.70;;;1.60;;
25349;SDS011;13302;48.796;11.978;2023-05-07T11:38:11;1.93;;;1.83;;
25349;SDS011;13302;48.796;11.978;2023-05-07T11:41:00;4.53;;;1.90;;
25349;SDS011;13302;48.796;11.978;2023-05-07T11:43:55;2.00;;;1.90;;
25349;SDS011;13302;48.796;11.978;2023-05-07T11:46:43;3.30;;;2.20;;
25349;SDS011;13302;48.796;11.978;2023-05-07T11:49:31;4.17;;;1.70;;
25349;SDS011;13302;48.796;11.978;2023-05-07T11:52:19;2.00;;;1.90;;
25349;SDS011;13302;48.796;11.978;2023-05-07T11:55:07;3.27;;;2.00;;
25349;SDS011;13302;48.796;11.978;2023-05-07T11:57:55;2.30;;;2.03;;
25349;SDS011;13302;48.796;11.978;2023-05-07T12:00:47;1.90;;;1.80;;
25349;SDS011;13302;48.796;11.978;2023-05-07T12:03:36;1.60;;;1.60;;
25349;SDS011;13302;48.796;11.978;2023-05-07T12:06:24;2.00;;;1.90;;
25349;SDS011;13302;48.796;11.978;2023-05-07T12:09:12;1.70;;;1.70;;
25349;SDS011;13302;48.796;11.978;2023-05-07T12:12:03;2.50;;;2.10;;
25349;SDS011;13302;48.796;11.978;2023-05-07T12:14:50;1.80;;;1.70;;
25349;SDS011;13302;48.796;11.978;2023-05-07T12:17:37;1.80;;;1.80;;
25349;SDS011;13302;48.796;11.978;2023-05-07T12:20:25;2.73;;;1.90;;
25349;SDS011;13302;48.796;11.978;2023-05-07T12:23:12;2.30;;;2.20;;
25349;SDS011;13302;48.796;11.978;2023-05-07T12:25:59;2.00;;;1.80;;
25349;SDS011;13302;48.796;11.978;2023-05-07T12:28:48;1.70;;;1.70;;
25349;SDS011;13302;48.796;11.978;2023-05-07T12:31:35;2.00;;;1.60;;
25349;SDS011;13302;48.796;11.978;2023-05-07T12:34:22;1.87;;;1.70;;
25349;SDS011;13302;48.796;11.978;2023-05-07T12:37:09;1.43;;;1.43;;
25349;SDS011;13302;48.796;11.978;2023-05-07T12:40:07;1.70;;;1.60;;
25349;SDS011;13302;48.796;11.978;2023-05-07T12:42:55;2.00;;;1.60;;
25349;SDS011;13302;48.796;11.978;2023-05-07T12:45:46;1.40;;;1.40;;
25349;SDS011;13302;48.796;11.978;2023-05-07T12:48:38;1.67;;;1.50;;
25349;SDS011;13302;48.796;11.978;2023-05-07T12:51:25;1.90;;;1.80;;
25349;SDS011;13302;48.796;11.978;2023-05-07T12:54:33;1.63;;;1.60;;
25349;SDS011;13302;48.796;11.978;2023-05-07T12:57:24;2.70;;;1.40;;
25349;SDS011;13302;48.796;11.978;2023-05-07T13:00:11;1.63;;;1.50;;
25349;SDS011;13302;48.796;11.978;2023-05-07T13:02:59;1.70;;;1.63;;
25349;SDS011;13302;48.796;11.978;2023-05-07T13:05:46;1.90;;;1.80;;
25349;SDS011;13302;48.796;11.978;2023-05-07T13:08:34;1.67;;;1.57;;
25349;SDS011;13302;48.796;11.978;2023-05-07T13:11:24;2.13;;;1.60;;
25349;SDS011;13302;48.796;11.978;2023-05-07T13:14:11;1.40;;;1.40;;
25349;SDS011;13302;48.796;11.978;2023-05-07T13:16:59;1.50;;;1.50;;
25349;SDS011;13302;48.796;11.978;2023-05-07T13:19:46;1.60;;;1.50;;
25349;SDS011;13302;48.796;11.978;2023-05-07T13:22:33;1.47;;;1.47;;
25349;SDS011;13302;48.796;11.978;2023-05-07T13:25:20;1.43;;;1.33;;
25349;SDS011;13302;48.796;11.978;2023-05-07T13:28:07;1.67;;;1.60;;
25349;SDS011;13302;48.796;11.978;2023-05-07T13:30:57;2.10;;;2.00;;
25349;SDS011;13302;48.796;11.978;2023-05-07T13:33:44;1.90;;;1.80;;
25349;SDS011;13302;48.796;11.978;2023-05-07T13:36:31;1.70;;;1.70;;
25349;SDS011;13302;48.796;11.978;2023-05-07T13:39:22;1.97;;;1.90;;
25349;SDS011;13302;48.796;11.978;2023-05-07T13:42:09;2.10;;;1.90;;
25349;SDS011;13302;48.796;11.978;2023-05-07T13:44:56;1.70;;;1.60;;
25349;SDS011;13302;48.796;11.978;2023-05-07T13:47:44;2.23;;;1.50;;
25349;SDS011;13302;48.796;11.978;2023-05-07T13:50:32;1.63;;;1.57;;
25349;SDS011;13302;48.796;11.978;2023-05-07T13:53:19;2.10;;;1.63;;
25349;SDS011;13302;48.796;11.978;2023-05-07T13:56:06;1.80;;;1.80;;
25349;SDS011;13302;48.796;11.978;2023-05-07T13:58:53;1.73;;;1.67;;
25349;SDS011;13302;48.796;11.978;2023-05-07T14:01:46;2.20;;;2.00;;
25349;SDS011;13302;48.796;11.978;2023-05-07T14:04:33;1.90;;;1.70;;
25349;SDS011;13302;48.796;11.978;2023-05-07T14:07:21;1.80;;;1.70;;
25349;SDS011;13302;48.796;11.978;2023-05-07T14:10:08;1.80;;;1.70;;
25349;SDS011;13302;48.796;11.978;2023-05-07T14:12:56;1.90;;;1.80;;
25349;SDS011;13302;48.796;11.978;2023-05-07T14:15:43;1.77;;;1.77;;
25349;SDS011;13302;48.796;11.978;2023-05-07T14:18:35;1.60;;;1.60;;
25349;SDS011;13302;48.796;11.978;2023-05-07T14:21:23;1.50;;;1.50;;
25349;SDS011;13302;48.796;11.978;2023-05-07T14:24:10;1.30;;;1.30;;
25349;SDS011;13302;48.796;11.978;2023-05-07T14:26:57;2.03;;;1.90;;
25349;SDS011;13302;48.796;11.978;2023-05-07T14:29:44;1.70;;;1.70;;
25349;SDS011;13302;48.796;11.978;2023-05-07T14:32:32;1.97;;;1.87;;
25349;SDS011;13302;48.796;11.978;2023-05-07T14:35:20;1.80;;;1.60;;
25349;SDS011;13302;48.796;11.978;2023-05-07T14:38:07;1.73;;;1.73;;
25349;SDS011;13302;48.796;11.978;2023-05-07T14:40:54;1.67;;;1.67;;
25349;SDS011;13302;48.796;11.978;2023-05-07T14:43:42;2.10;;;2.00;;
25349;SDS011;13302;48.796;11.978;2023-05-07T14:46:30;2.40;;;2.20;;
25349;SDS011;13302;48.796;11.978;2023-05-07T14:49:17;2.43;;;2.23;;
25349;SDS011;13302;48.796;11.978;2023-05-07T14:52:04;2.17;;;2.07;;
25349;SDS011;13302;48.796;11.978;2023-05-07T14:54:52;1.97;;;1.97;;
25349;SDS011;13302;48.796;11.978;2023-05-07T14:57:40;2.20;;;1.83;;
25349;SDS011;13302;48.796;11.978;2023-05-07T15:00:27;2.23;;;2.13;;
25349;SDS011;13302;48.796;11.978;2023-05-07T15:03:14;1.80;;;1.80;;
25349;SDS011;13302;48.796;11.978;2023-05-07T15:06:04;1.93;;;1.90;;
25349;SDS011;13302;48.796;11.978;2023-05-07T15:08:51;2.10;;;2.00;;
25349;SDS011;13302;48.796;11.978;2023-05-07T15:11:38;1.90;;;1.80;;
25349;SDS011;13302;48.796;11.978;2023-05-07T15:14:26;2.13;;;2.03;;
25349;SDS011;13302;48.796;11.978;2023-05-07T15:17:13;2.13;;;2.03;;
25349;SDS011;13302;48.796;11.978;2023-05-07T15:20:01;1.80;;;1.80;;
25349;SDS011;13302;48.796;11.978;2023-05-07T15:22:51;2.00;;;1.90;;
25349;SDS011;13302;48.796;11.978;2023-05-07T15:25:38;1.80;;;1.70;;
25349;SDS011;13302;48.796;11.978;2023-05-07T15:28:25;2.07;;;1.97;;
25349;SDS011;13302;48.796;11.978;2023-05-07T15:31:15;2.00;;;1.90;;
25349;SDS011;13302;48.796;11.978;2023-05-07T15:34:03;1.90;;;1.90;;
25349;SDS011;13302;48.796;11.978;2023-05-07T15:36:50;1.93;;;1.87;;
25349;SDS011;13302;48.796;11.978;2023-05-07T15:39:37;2.43;;;2.33;;
25349;SDS011;13302;48.796;11.978;2023-05-07T15:42:24;2.03;;;1.93;;
25349;SDS011;13302;48.796;11.978;2023-05-07T15:45:11;2.03;;;1.93;;
25349;SDS011;13302;48.796;11.978;2023-05-07T15:47:59;2.43;;;2.30;;
25349;SDS011;13302;48.796;11.978;2023-05-07T15:50:47;2.27;;;2.17;;
25349;SDS011;13302;48.796;11.978;2023-05-07T15:53:34;2.47;;;2.27;;
25349;SDS011;13302;48.796;11.978;2023-05-07T15:56:21;2.40;;;2.30;;
25349;SDS011;13302;48.796;11.978;2023-05-07T15:59:08;2.57;;;2.47;;
25349;SDS011;13302;48.796;11.978;2023-05-07T16:01:55;2.30;;;2.20;;
25349;SDS011;13302;48.796;11.978;2023-05-07T16:04:42;2.93;;;2.73;;
25349;SDS011;13302;48.796;11.978;2023-05-07T16:07:29;2.60;;;2.50;;
25349;SDS011;13302;48.796;11.978;2023-05-07T16:10:16;2.60;;;2.40;;
25349;SDS011;13302;48.796;11.978;2023-05-07T16:13:04;2.93;;;2.80;;
25349;SDS011;13302;48.796;11.978;2023-05-07T16:15:54;2.40;;;2.30;;
25349;SDS011;13302;48.796;11.978;2023-05-07T16:18:44;2.67;;;2.57;;
25349;SDS011;13302;48.796;11.978;2023-05-07T16:21:31;2.73;;;2.63;;
25349;SDS011;13302;48.796;11.978;2023-05-07T16:24:18;3.03;;;2.83;;
25349;SDS011;13302;48.796;11.978;2023-05-07T16:27:06;3.00;;;2.80;;
25349;SDS011;13302;48.796;11.978;2023-05-07T16:29:53;2.83;;;2.63;;
25349;SDS011;13302;48.796;11.978;2023-05-07T16:32:40;3.00;;;2.70;;
25349;SDS011;13302;48.796;11.978;2023-05-07T16:35:27;3.10;;;2.90;;
25349;SDS011;13302;48.796;11.978;2023-05-07T16:38:14;2.90;;;2.80;;
25349;SDS011;13302;48.796;11.978;2023-05-07T16:41:01;2.80;;;2.60;;
25349;SDS011;13302;48.796;11.978;2023-05-07T16:43:49;2.83;;;2.73;;
25349;SDS011;13302;48.796;11.978;2023-05-07T16:46:36;3.20;;;3.00;;
25349;SDS011;13302;48.796;11.978;2023-05-07T16:49:23;2.90;;;2.70;;
25349;SDS011;13302;48.796;11.978;2023-05-07T16:52:10;3.50;;;3.30;;
25349;SDS011;13302;48.796;11.978;2023-05-07T16:54:57;3.03;;;2.80;;
25349;SDS011;13302;48.796;11.978;2023-05-07T16:57:47;3.10;;;3.00;;
25349;SDS011;13302;48.796;11.978;2023-05-07T17:00:34;4.70;;;3.20;;
25349;SDS011;13302;48.796;11.978;2023-05-07T17:03:36;3.07;;;2.97;;